EKAH Airport Information

Runway Information
Runway 10L Length 9111 ft width 75 ft
Elevation 79 ft Threshold 0 ft Heading 100
Runway 28R Length 9111 ft Width 75 ft
Elevation 78 ft Threshold 0 ft Heading 280
Runway 10R Length 8865 ft width 148 ft
Elevation 81 ft Threshold 0 ft Heading 100
Runway 28L Length 8865 ft Width 148 ft
Elevation 75 ft Threshold 0 ft Heading 280
Airport Frequencies
Type APP Name APP Frequency 119.275 MHZ
Type MISC Name HANDLING Frequency 130.225 MHZ
Type MISC Name AIRPORT OF Frequency 130.225 MHZ
Type TWR Name TWR Frequency 118.525 MHZ
Airport Navaids
Type NDB Name Aarhus Frequency 324 KHZ
Type NDB Name Aarhus Frequency 374 KHZ
Airport Weather Information & NOTAM
ADDS - METARS form results

(0001 UTC 19 January 2018)
 
METAR text: EKAH 182350Z AUTO 28003KT 2000NDV BR OVC002/// 01/01 Q0997 R99/290195
Conditions at: EKAH (TIRSTRUP (CIV/MI, DK) observed 2350 UTC 18 January 2018
Temperature: 1.0°C (34°F)
Dewpoint: 1.0°C (34°F) [RH = 100%]
Pressure (altimeter): 29.44 inches Hg (997.0 mb)
Winds: from the W (280 degrees) at 3 MPH (3 knots; 1.6 m/s)
Visibility: 0.12 miles (0.19 km)
Ceiling: 200 feet AGL
Clouds: overcast cloud deck at 200 feet AGL
Weather: BR  (mist)

METAR text: EKAH 182320Z AUTO 31002KT 1500NDV R10R/P1500N R28L/0900N FG BKN002/// 01/01 Q0996 R99/290195
Conditions at: EKAH (TIRSTRUP (CIV/MI, DK) observed 2320 UTC 18 January 2018
Temperature: 1.0°C (34°F)
Dewpoint: 1.0°C (34°F) [RH = 100%]
Pressure (altimeter): 29.41 inches Hg (996.0 mb)
Winds: from the NW (310 degrees) at 2 MPH (2 knots; 1.0 m/s)
Visibility: 0.93 miles (1.50 km)
Ceiling: 200 feet AGL
Clouds: broken clouds at 200 feet AGL
Weather: FG  (fog)